createdAt,value
2018-12-13T00:00:55.073Z,91.80
2018-12-13T00:01:58.450Z,91.90
2018-12-13T00:03:01.847Z,91.90
2018-12-13T00:04:05.277Z,91.90
2018-12-13T00:05:08.671Z,91.90
2018-12-13T00:06:12.065Z,92.00
2018-12-13T00:07:15.442Z,92.00
2018-12-13T00:08:18.849Z,92.00
2018-12-13T00:09:22.232Z,92.10
2018-12-13T00:10:25.607Z,92.00
2018-12-13T00:11:29.087Z,92.10
2018-12-13T00:12:32.463Z,92.00
2018-12-13T00:13:35.849Z,92.00
2018-12-13T00:14:39.218Z,91.90
2018-12-13T00:15:42.586Z,92.00
2018-12-13T00:16:45.970Z,92.00
2018-12-13T00:17:49.370Z,92.00
2018-12-13T00:18:53.446Z,91.90
2018-12-13T00:19:56.828Z,91.90
2018-12-13T00:21:00.216Z,92.00
2018-12-13T00:22:03.681Z,92.00
2018-12-13T00:23:07.055Z,92.00
2018-12-13T00:24:10.438Z,91.90
2018-12-13T00:25:13.811Z,91.80
2018-12-13T00:26:17.190Z,91.80
2018-12-13T00:27:20.581Z,91.80
2018-12-13T00:28:24.039Z,91.80
2018-12-13T00:29:27.429Z,91.70
2018-12-13T00:30:30.794Z,91.80
2018-12-13T00:31:34.170Z,91.70
2018-12-13T00:32:37.555Z,91.70
2018-12-13T00:33:40.923Z,91.70
2018-12-13T00:34:44.307Z,91.70
2018-12-13T00:35:47.682Z,91.70
2018-12-13T00:36:51.064Z,92.10
2018-12-13T00:37:54.443Z,91.70
2018-12-13T00:38:57.815Z,91.80
2018-12-13T00:40:01.201Z,91.70
2018-12-13T00:41:04.583Z,91.80
2018-12-13T00:42:07.968Z,91.80
2018-12-13T00:43:11.343Z,91.80
2018-12-13T00:44:14.723Z,91.80
2018-12-13T00:45:18.130Z,91.80
2018-12-13T00:46:21.554Z,91.80
2018-12-13T00:47:25.019Z,91.80
2018-12-13T00:48:28.392Z,91.80
2018-12-13T00:49:31.753Z,91.80
2018-12-13T00:50:35.162Z,91.90
2018-12-13T00:51:38.612Z,91.90
2018-12-13T00:52:42.022Z,91.90
2018-12-13T00:53:45.505Z,91.90
2018-12-13T00:54:48.931Z,91.90
2018-12-13T00:55:52.339Z,91.80
2018-12-13T00:56:55.749Z,91.90
2018-12-13T00:57:59.127Z,91.90
2018-12-13T00:59:02.486Z,91.90
2018-12-13T01:00:06.453Z,91.90
2018-12-13T01:01:09.858Z,91.90
2018-12-13T01:02:13.230Z,91.90
2018-12-13T01:03:16.611Z,91.90
2018-12-13T01:04:19.996Z,91.90
2018-12-13T01:05:23.357Z,91.90
2018-12-13T01:06:27.567Z,92.00
2018-12-13T01:07:30.937Z,92.00
2018-12-13T01:08:34.316Z,92.10
2018-12-13T01:09:37.687Z,92.10
2018-12-13T01:10:41.047Z,92.20
2018-12-13T01:11:44.442Z,92.20
2018-12-13T01:12:47.929Z,92.20
2018-12-13T01:13:51.296Z,92.20
2018-12-13T01:14:54.677Z,92.20
2018-12-13T01:15:58.085Z,92.20
2018-12-13T01:17:01.482Z,92.20
2018-12-13T01:18:04.877Z,92.20
2018-12-13T01:19:08.244Z,92.30
2018-12-13T01:20:11.614Z,92.30
2018-12-13T01:21:20.385Z,92.30
2018-12-13T01:22:20.384Z,92.30
2018-12-13T01:23:23.763Z,92.20
2018-12-13T01:24:27.194Z,92.20
2018-12-13T01:25:30.599Z,92.20
2018-12-13T01:26:33.970Z,92.30
2018-12-13T01:27:37.378Z,92.30
2018-12-13T01:28:40.862Z,92.30
2018-12-13T01:29:44.247Z,92.60
2018-12-13T01:30:47.630Z,92.20
2018-12-13T01:31:51.045Z,92.20
2018-12-13T01:32:54.454Z,92.20
2018-12-13T01:33:57.831Z,92.20
2018-12-13T01:35:01.214Z,92.20
2018-12-13T01:36:04.686Z,92.30
2018-12-13T01:37:08.191Z,92.30
2018-12-13T01:38:11.577Z,92.30
2018-12-13T01:39:14.941Z,92.20
2018-12-13T01:40:18.330Z,92.20
2018-12-13T01:41:21.693Z,92.20
2018-12-13T01:42:25.067Z,92.20
2018-12-13T01:43:30.441Z,92.20
2018-12-13T01:44:33.818Z,92.10
2018-12-13T01:45:37.182Z,92.10
2018-12-13T01:46:40.575Z,92.10
2018-12-13T01:47:43.967Z,92.10
2018-12-13T01:48:47.393Z,92.20
2018-12-13T01:49:50.791Z,92.30
2018-12-13T01:50:54.154Z,92.20
2018-12-13T01:51:57.526Z,92.20
2018-12-13T01:53:00.907Z,92.20
2018-12-13T01:54:04.288Z,92.20
2018-12-13T01:55:07.678Z,92.30
2018-12-13T01:56:11.059Z,92.20
2018-12-13T01:57:14.453Z,92.30
2018-12-13T01:58:17.854Z,92.60
2018-12-13T01:59:21.219Z,92.30
2018-12-13T02:00:24.606Z,92.30
2018-12-13T02:01:27.986Z,92.30
2018-12-13T02:02:31.379Z,92.40
2018-12-13T02:03:34.746Z,92.40
2018-12-13T02:04:38.124Z,92.40
2018-12-13T02:05:41.486Z,92.40
2018-12-13T02:06:44.898Z,92.50
2018-12-13T02:07:48.317Z,92.50
2018-12-13T02:08:51.681Z,92.50
2018-12-13T02:09:55.047Z,92.50
2018-12-13T02:10:58.431Z,92.70
2018-12-13T02:12:01.805Z,92.60
2018-12-13T02:13:05.233Z,92.60
2018-12-13T02:14:08.607Z,92.60
2018-12-13T02:15:12.002Z,92.60
2018-12-13T02:16:15.415Z,92.70
2018-12-13T02:17:18.795Z,92.90
2018-12-13T02:18:22.214Z,92.70
2018-12-13T02:19:25.579Z,92.80
2018-12-13T02:20:28.982Z,92.90
2018-12-13T02:21:32.351Z,92.90
2018-12-13T02:22:35.736Z,92.90
2018-12-13T02:23:39.130Z,92.90
2018-12-13T02:24:42.526Z,93.00
2018-12-13T02:25:45.929Z,93.00
2018-12-13T02:26:49.298Z,93.00
2018-12-13T02:27:52.719Z,93.00
2018-12-13T02:28:56.139Z,93.00
2018-12-13T02:29:59.534Z,93.00
2018-12-13T02:31:02.930Z,93.10
2018-12-13T02:32:06.343Z,93.10
2018-12-13T02:33:09.816Z,93.10
2018-12-13T02:34:13.242Z,93.20
2018-12-13T02:35:16.629Z,93.20
2018-12-13T02:36:19.993Z,93.20
2018-12-13T02:37:23.384Z,93.20
2018-12-13T02:38:26.823Z,93.20
2018-12-13T02:39:30.221Z,93.30
2018-12-13T02:40:33.603Z,93.30
2018-12-13T02:41:36.987Z,93.30
2018-12-13T02:42:40.383Z,93.30
2018-12-13T02:43:43.770Z,93.30
2018-12-13T02:44:47.275Z,93.40
2018-12-13T02:45:50.654Z,93.60
2018-12-13T02:46:54.247Z,93.40
2018-12-13T02:47:57.630Z,93.40
2018-12-13T02:49:07.991Z,93.40
2018-12-13T02:50:11.398Z,93.70
2018-12-13T02:51:14.774Z,93.50
2018-12-13T02:52:18.184Z,93.50
2018-12-13T02:53:21.565Z,93.50
2018-12-13T02:54:24.945Z,93.50
2018-12-13T02:55:28.346Z,93.40
2018-12-13T02:56:31.753Z,93.40
2018-12-13T02:57:35.151Z,93.40
2018-12-13T02:58:38.538Z,93.40
2018-12-13T02:59:41.931Z,93.40
2018-12-13T03:00:45.326Z,93.40
2018-12-13T03:01:48.691Z,93.40
2018-12-13T03:02:52.054Z,93.40
2018-12-13T03:03:55.432Z,93.40
2018-12-13T03:04:58.817Z,93.50
2018-12-13T03:06:02.245Z,93.50
2018-12-13T03:07:05.606Z,93.50
2018-12-13T03:08:08.982Z,93.60
2018-12-13T03:09:12.382Z,93.60
2018-12-13T03:10:15.779Z,93.60
2018-12-13T03:11:19.177Z,93.60
2018-12-13T03:12:22.551Z,93.60
2018-12-13T03:13:26.147Z,93.60
2018-12-13T03:14:29.524Z,93.60
2018-12-13T03:15:32.907Z,93.70
2018-12-13T03:16:36.301Z,93.70
2018-12-13T03:17:39.675Z,93.70
2018-12-13T03:18:43.064Z,93.70
2018-12-13T03:19:46.446Z,93.70
2018-12-13T03:20:49.808Z,93.70
2018-12-13T03:21:53.227Z,93.70
2018-12-13T03:22:56.617Z,93.90
2018-12-13T03:24:00.099Z,93.70
2018-12-13T03:25:03.471Z,93.70
2018-12-13T03:26:06.848Z,93.80
2018-12-13T03:27:10.221Z,93.80
2018-12-13T03:28:13.607Z,93.90
2018-12-13T03:29:16.971Z,93.90
2018-12-13T03:30:20.368Z,93.90
2018-12-13T03:31:23.753Z,93.90
2018-12-13T03:32:27.169Z,94.00
2018-12-13T03:33:30.535Z,94.00
2018-12-13T03:34:33.928Z,94.00
2018-12-13T03:35:37.317Z,94.10
2018-12-13T03:36:40.698Z,94.10
2018-12-13T03:37:44.100Z,94.10
2018-12-13T03:38:47.463Z,94.20
2018-12-13T03:39:50.849Z,94.20
2018-12-13T03:40:54.223Z,94.20
2018-12-13T03:41:57.627Z,94.20
2018-12-13T03:43:01.019Z,94.10
2018-12-13T03:44:04.872Z,94.10
2018-12-13T03:45:08.370Z,94.10
2018-12-13T03:46:11.743Z,94.10
2018-12-13T03:47:15.119Z,94.10
2018-12-13T03:48:18.510Z,94.10
2018-12-13T03:49:21.873Z,94.10
2018-12-13T03:50:25.307Z,94.10
2018-12-13T03:51:28.679Z,94.20
2018-12-13T03:52:32.081Z,94.10
2018-12-13T03:53:35.479Z,94.10
2018-12-13T03:54:38.913Z,94.10
2018-12-13T03:55:42.284Z,94.10
2018-12-13T03:56:45.669Z,94.10
2018-12-13T03:57:49.043Z,94.10
2018-12-13T03:58:52.422Z,94.00
2018-12-13T03:59:55.803Z,94.10
2018-12-13T04:00:59.212Z,94.10
2018-12-13T04:02:02.713Z,94.10
2018-12-13T04:03:06.078Z,94.10
2018-12-13T04:04:09.486Z,94.10
2018-12-13T04:05:12.891Z,94.40
2018-12-13T04:06:16.262Z,94.10
2018-12-13T04:07:19.664Z,94.10
2018-12-13T04:08:23.047Z,94.10
2018-12-13T04:09:26.445Z,94.10
2018-12-13T04:10:29.850Z,94.00
2018-12-13T04:11:33.213Z,94.00
2018-12-13T04:12:36.667Z,94.10
2018-12-13T04:13:40.055Z,94.10
2018-12-13T04:14:43.438Z,94.20
2018-12-13T04:15:46.938Z,94.20
2018-12-13T04:16:50.315Z,94.20
2018-12-13T04:17:53.854Z,94.20
2018-12-13T04:18:57.233Z,94.20
2018-12-13T04:20:00.614Z,94.20
2018-12-13T04:21:04.032Z,94.20
2018-12-13T04:22:07.410Z,94.20
2018-12-13T04:23:10.830Z,94.30
2018-12-13T04:24:14.208Z,94.60
2018-12-13T04:25:17.589Z,94.30
2018-12-13T04:26:20.966Z,94.40
2018-12-13T04:27:24.334Z,94.40
2018-12-13T04:28:27.704Z,94.40
2018-12-13T04:29:31.087Z,94.40
2018-12-13T04:30:34.493Z,94.50
2018-12-13T04:31:37.858Z,94.50
2018-12-13T04:32:41.238Z,94.80
2018-12-13T04:33:44.607Z,94.60
2018-12-13T04:34:47.995Z,94.60
2018-12-13T04:35:51.383Z,94.60
2018-12-13T04:36:54.758Z,94.60
2018-12-13T04:37:58.135Z,94.60
2018-12-13T04:39:01.513Z,94.60
2018-12-13T04:40:04.922Z,94.60
2018-12-13T04:41:08.328Z,94.60
2018-12-13T04:42:11.703Z,94.60
2018-12-13T04:43:15.079Z,94.60
2018-12-13T04:44:18.463Z,94.50
2018-12-13T04:45:21.869Z,94.50
2018-12-13T04:46:25.258Z,94.50
2018-12-13T04:47:28.642Z,94.50
2018-12-13T04:48:32.015Z,94.60
2018-12-13T04:49:35.409Z,94.60
2018-12-13T04:50:38.778Z,94.60
2018-12-13T04:51:42.207Z,94.60
2018-12-13T04:52:45.607Z,94.60
2018-12-13T04:53:48.992Z,94.60
2018-12-13T04:54:52.354Z,94.60
2018-12-13T04:55:55.726Z,94.60
2018-12-13T04:56:59.154Z,94.60
2018-12-13T04:58:02.602Z,94.60
2018-12-13T04:59:05.970Z,94.80
2018-12-13T05:00:09.355Z,94.50
2018-12-13T05:01:12.759Z,94.50
2018-12-13T05:02:16.168Z,94.50
2018-12-13T05:03:19.546Z,94.50
2018-12-13T05:04:22.948Z,94.70
2018-12-13T05:05:26.343Z,94.50
2018-12-13T05:06:29.752Z,94.50
2018-12-13T05:07:33.153Z,94.40
2018-12-13T05:08:36.598Z,94.40
2018-12-13T05:09:40.002Z,94.50
2018-12-13T05:10:51.070Z,94.40
2018-12-13T05:11:54.479Z,94.60
2018-12-13T05:12:57.927Z,94.40
2018-12-13T05:14:01.314Z,94.40
2018-12-13T05:15:05.004Z,94.40
2018-12-13T05:16:08.392Z,94.40
2018-12-13T05:17:11.778Z,94.40
2018-12-13T05:18:15.219Z,94.40
2018-12-13T05:19:18.634Z,94.40
2018-12-13T05:20:22.010Z,94.40
2018-12-13T05:21:25.394Z,94.50
2018-12-13T05:22:28.795Z,94.40
2018-12-13T05:23:32.185Z,94.40
2018-12-13T05:24:35.569Z,94.40
2018-12-13T05:25:38.977Z,94.30
2018-12-13T05:26:42.349Z,94.50
2018-12-13T05:27:45.753Z,94.20
2018-12-13T05:28:49.166Z,94.20
2018-12-13T05:29:52.555Z,94.20
2018-12-13T05:30:56.110Z,94.20
2018-12-13T05:31:59.487Z,94.10
2018-12-13T05:33:02.875Z,94.10
2018-12-13T05:34:06.284Z,94.10
2018-12-13T05:35:09.666Z,94.10
2018-12-13T05:36:13.054Z,94.00
2018-12-13T05:37:16.442Z,94.00
2018-12-13T05:38:19.834Z,94.00
2018-12-13T05:39:23.251Z,94.00
2018-12-13T05:40:26.651Z,93.90
2018-12-13T05:41:30.089Z,93.90
2018-12-13T05:42:33.522Z,93.90
2018-12-13T05:43:36.897Z,93.90
2018-12-13T05:44:40.293Z,93.90
2018-12-13T05:45:43.696Z,93.90
2018-12-13T05:46:47.138Z,93.90
2018-12-13T05:47:50.583Z,93.90
2018-12-13T05:48:54.615Z,93.80
2018-12-13T05:49:58.173Z,93.80
2018-12-13T05:51:01.564Z,93.80
2018-12-13T05:52:04.941Z,93.80
2018-12-13T05:53:08.342Z,93.70
2018-12-13T05:54:11.738Z,93.70
2018-12-13T05:55:15.150Z,93.70
2018-12-13T05:56:18.530Z,93.90
2018-12-13T05:57:22.399Z,93.60
2018-12-13T05:58:25.786Z,93.60
2018-12-13T05:59:29.178Z,93.50
2018-12-13T06:00:32.760Z,93.50
2018-12-13T06:01:36.157Z,93.50
2018-12-13T06:02:39.558Z,93.50
2018-12-13T06:03:42.939Z,93.50
2018-12-13T06:04:46.314Z,93.40
2018-12-13T06:05:50.098Z,93.50
2018-12-13T06:06:53.732Z,93.50
2018-12-13T06:07:57.116Z,93.60
2018-12-13T06:09:00.503Z,93.60
2018-12-13T06:10:04.168Z,93.60
2018-12-13T06:11:07.595Z,93.60
2018-12-13T06:12:10.992Z,93.50
2018-12-13T06:13:14.374Z,93.50
2018-12-13T06:14:17.752Z,93.50
2018-12-13T06:15:21.126Z,93.40
2018-12-13T06:16:24.531Z,93.50
2018-12-13T06:17:27.911Z,93.50
2018-12-13T06:18:31.302Z,93.50
2018-12-13T06:19:34.717Z,93.60
2018-12-13T06:20:38.108Z,93.70
2018-12-13T06:21:41.501Z,93.70
2018-12-13T06:22:44.874Z,93.70
2018-12-13T06:23:48.268Z,93.70
2018-12-13T06:24:51.673Z,93.70
2018-12-13T06:25:55.056Z,93.60
2018-12-13T06:26:58.450Z,93.50
2018-12-13T06:28:01.827Z,93.50
2018-12-13T06:29:05.290Z,93.50
2018-12-13T06:30:08.674Z,93.50
2018-12-13T06:31:12.058Z,93.50
2018-12-13T06:32:15.461Z,93.50
2018-12-13T06:33:24.658Z,93.50
2018-12-13T06:34:24.307Z,93.40
2018-12-13T06:35:27.698Z,93.40
2018-12-13T06:36:31.077Z,93.40
2018-12-13T06:37:34.503Z,93.40
2018-12-13T06:38:37.878Z,93.30
2018-12-13T06:39:41.312Z,93.30
2018-12-13T06:40:44.718Z,93.10
2018-12-13T06:41:48.091Z,92.90
2018-12-13T06:42:51.535Z,92.80
2018-12-13T06:43:55.019Z,92.70
2018-12-13T06:44:58.443Z,92.70
2018-12-13T06:46:01.842Z,92.60
2018-12-13T06:47:05.233Z,92.40
2018-12-13T06:48:08.654Z,92.40
2018-12-13T06:49:12.229Z,92.30
2018-12-13T06:50:15.627Z,92.30
2018-12-13T06:51:20.156Z,92.20
2018-12-13T06:52:23.751Z,92.20
2018-12-13T06:53:27.150Z,92.10
2018-12-13T06:54:30.542Z,92.10
2018-12-13T06:55:33.939Z,92.10
2018-12-13T06:56:37.349Z,92.10
2018-12-13T06:57:40.767Z,92.00
2018-12-13T06:58:44.178Z,92.00
2018-12-13T06:59:47.552Z,92.00
2018-12-13T07:00:50.985Z,91.70
2018-12-13T07:01:54.379Z,91.70
2018-12-13T07:02:57.802Z,91.70
2018-12-13T07:04:01.213Z,91.70
2018-12-13T07:05:04.639Z,91.70
2018-12-13T07:06:08.019Z,91.80
2018-12-13T07:07:11.578Z,91.70
2018-12-13T07:08:14.958Z,91.70
2018-12-13T07:09:18.386Z,91.60
2018-12-13T07:10:21.793Z,91.60
2018-12-13T07:11:25.323Z,91.50
2018-12-13T07:12:28.713Z,91.50
2018-12-13T07:13:32.338Z,91.60
2018-12-13T07:14:35.761Z,91.60
2018-12-13T07:15:39.132Z,91.60
2018-12-13T07:16:42.627Z,91.60
2018-12-13T07:17:46.002Z,91.60
2018-12-13T07:18:49.905Z,91.60
2018-12-13T07:19:58.811Z,91.70
2018-12-13T07:21:02.226Z,91.70
2018-12-13T07:22:05.598Z,91.60
2018-12-13T07:23:09.014Z,91.60
2018-12-13T07:24:12.438Z,91.60
2018-12-13T07:25:15.870Z,91.70
2018-12-13T07:26:19.263Z,91.50
2018-12-13T07:27:22.641Z,91.50
2018-12-13T07:28:26.287Z,91.50
2018-12-13T07:29:29.698Z,91.50
2018-12-13T07:30:33.098Z,91.40
2018-12-13T07:31:36.502Z,91.40
2018-12-13T07:32:39.906Z,91.50
2018-12-13T07:33:43.334Z,91.70
2018-12-13T07:34:46.707Z,91.50
2018-12-13T07:35:50.163Z,91.40
2018-12-13T07:36:53.542Z,91.70
2018-12-13T07:37:56.954Z,91.40
2018-12-13T07:39:00.341Z,91.70
2018-12-13T07:40:03.772Z,91.30
2018-12-13T07:41:07.200Z,91.30
2018-12-13T07:42:10.619Z,91.30
2018-12-13T07:43:13.973Z,91.10
2018-12-13T07:44:17.380Z,91.10
2018-12-13T07:45:20.791Z,91.10
2018-12-13T07:46:24.210Z,91.10
2018-12-13T07:47:27.571Z,91.10
2018-12-13T07:48:30.942Z,91.10
2018-12-13T07:49:34.322Z,91.10
2018-12-13T07:50:37.693Z,91.10
2018-12-13T07:51:41.077Z,91.00
2018-12-13T07:52:44.467Z,91.00
2018-12-13T07:53:47.888Z,91.00
2018-12-13T07:54:51.270Z,91.00
2018-12-13T07:55:54.653Z,91.00
2018-12-13T07:56:58.053Z,90.90
2018-12-13T07:58:02.356Z,91.00
2018-12-13T07:59:05.858Z,90.90
2018-12-13T08:00:09.570Z,90.90
2018-12-13T08:01:13.032Z,90.90
2018-12-13T08:02:16.413Z,90.80
2018-12-13T08:03:19.808Z,90.80
2018-12-13T08:04:23.210Z,90.80
2018-12-13T08:05:26.603Z,90.80
2018-12-13T08:06:30.004Z,90.80
2018-12-13T08:07:33.423Z,90.80
2018-12-13T08:08:36.795Z,90.70
2018-12-13T08:09:40.168Z,90.70
2018-12-13T08:10:43.551Z,90.70
2018-12-13T08:11:46.927Z,90.80
2018-12-13T08:12:50.330Z,90.70
2018-12-13T08:13:53.718Z,90.80
2018-12-13T08:14:57.124Z,90.80
2018-12-13T08:16:00.524Z,90.80
2018-12-13T08:17:03.907Z,90.80
2018-12-13T08:18:07.363Z,90.80
2018-12-13T08:19:10.782Z,90.80
2018-12-13T08:20:14.571Z,90.80
2018-12-13T08:21:18.035Z,90.80
2018-12-13T08:22:21.410Z,90.70
2018-12-13T08:23:24.822Z,90.60
2018-12-13T08:24:28.202Z,90.70
2018-12-13T08:25:31.627Z,90.70
2018-12-13T08:26:35.026Z,90.60
2018-12-13T08:27:38.406Z,90.60
2018-12-13T08:28:41.793Z,90.60
2018-12-13T08:29:45.176Z,90.50
2018-12-13T08:30:48.559Z,90.50
2018-12-13T08:31:51.933Z,90.50
2018-12-13T08:32:55.330Z,90.40
2018-12-13T08:33:58.704Z,90.40
2018-12-13T08:35:02.097Z,90.40
2018-12-13T08:36:05.565Z,90.40
2018-12-13T08:37:08.942Z,90.40
2018-12-13T08:38:12.310Z,90.30
2018-12-13T08:39:15.720Z,90.20
2018-12-13T08:40:19.102Z,90.10
2018-12-13T08:41:22.482Z,90.10
2018-12-13T08:42:25.850Z,90.10
2018-12-13T08:43:29.218Z,90.10
2018-12-13T08:44:32.617Z,90.00
2018-12-13T08:45:36.060Z,90.00
2018-12-13T08:46:39.462Z,90.00
2018-12-13T08:47:42.851Z,90.00
2018-12-13T08:48:46.272Z,89.50
2018-12-13T08:49:49.690Z,88.60
2018-12-13T08:50:54.273Z,88.50
2018-12-13T08:51:57.963Z,88.60
2018-12-13T08:53:01.365Z,88.50
2018-12-13T08:54:04.798Z,88.40
2018-12-13T08:55:08.190Z,88.30
2018-12-13T08:56:11.595Z,89.10
2018-12-13T08:57:15.014Z,88.40
2018-12-13T08:58:18.416Z,88.30
2018-12-13T08:59:21.806Z,88.20
2018-12-13T09:00:25.218Z,88.10
2018-12-13T09:01:28.624Z,87.70
2018-12-13T09:02:31.995Z,87.10
2018-12-13T09:03:35.412Z,87.70
2018-12-13T09:04:38.826Z,87.60
2018-12-13T09:05:42.243Z,87.50
2018-12-13T09:06:45.626Z,87.40
2018-12-13T09:07:49.014Z,87.40
2018-12-13T09:08:52.435Z,87.20
2018-12-13T09:09:55.815Z,87.00
2018-12-13T09:10:59.234Z,87.30
2018-12-13T09:12:02.651Z,86.30
2018-12-13T09:13:06.050Z,86.30
2018-12-13T09:14:09.449Z,86.40
2018-12-13T09:15:12.839Z,86.00
2018-12-13T09:16:16.237Z,85.40
2018-12-13T09:17:19.610Z,85.30
2018-12-13T09:18:23.007Z,85.30
2018-12-13T09:19:26.910Z,85.40
2018-12-13T09:20:30.278Z,85.40
2018-12-13T09:21:33.680Z,85.40
2018-12-13T09:22:37.078Z,85.40
2018-12-13T09:23:40.452Z,85.40
2018-12-13T09:24:43.862Z,85.30
2018-12-13T09:25:47.255Z,84.80
2018-12-13T09:26:50.647Z,84.80
2018-12-13T09:27:54.014Z,84.70
2018-12-13T09:28:57.392Z,84.70
2018-12-13T09:30:00.794Z,84.70
2018-12-13T09:31:04.188Z,84.80
2018-12-13T09:32:07.590Z,84.90
2018-12-13T09:33:11.003Z,84.90
2018-12-13T09:34:14.387Z,84.70
2018-12-13T09:35:17.778Z,85.30
2018-12-13T09:36:21.211Z,85.10
2018-12-13T09:37:24.609Z,84.40
2018-12-13T09:38:27.979Z,84.30
2018-12-13T09:39:31.350Z,83.90
2018-12-13T09:40:34.779Z,83.70
2018-12-13T09:41:38.175Z,83.60
2018-12-13T09:42:41.558Z,83.50
2018-12-13T09:43:45.530Z,83.50
2018-12-13T09:44:49.049Z,83.50
2018-12-13T09:45:52.432Z,83.40
2018-12-13T09:46:55.823Z,83.30
2018-12-13T09:47:59.242Z,83.30
2018-12-13T09:49:02.618Z,83.10
2018-12-13T09:51:31.711Z,82.80
2018-12-13T09:52:35.132Z,82.50
2018-12-13T09:53:38.578Z,82.40
2018-12-13T09:54:41.947Z,82.30
2018-12-13T09:55:45.314Z,81.40
2018-12-13T09:56:48.718Z,81.10
2018-12-13T09:57:52.089Z,81.20
2018-12-13T09:58:55.516Z,81.30
2018-12-13T09:59:58.892Z,81.40
2018-12-13T10:01:02.265Z,81.40
2018-12-13T10:02:05.686Z,81.10
2018-12-13T10:03:09.084Z,81.60
2018-12-13T10:04:12.482Z,81.10
2018-12-13T10:05:15.854Z,81.10
2018-12-13T10:06:19.245Z,81.00
2018-12-13T10:07:22.639Z,81.10
2018-12-13T10:08:26.022Z,81.00
2018-12-13T10:09:29.422Z,80.20
2018-12-13T10:10:32.821Z,80.10
2018-12-13T10:11:36.797Z,80.10
2018-12-13T10:12:40.182Z,80.20
2018-12-13T10:13:43.550Z,80.00
2018-12-13T10:14:46.934Z,79.20
2018-12-13T10:15:50.312Z,79.10
2018-12-13T10:16:53.706Z,79.10
2018-12-13T10:17:57.110Z,78.90
2018-12-13T10:19:00.711Z,78.50
2018-12-13T10:20:04.121Z,78.30
2018-12-13T10:21:07.538Z,78.20
2018-12-13T10:22:11.897Z,78.20
2018-12-13T10:23:15.513Z,78.10
2018-12-13T10:24:18.887Z,78.20
2018-12-13T10:25:22.309Z,78.30
2018-12-13T10:26:25.682Z,78.90
2018-12-13T10:27:29.091Z,78.30
2018-12-13T10:28:32.458Z,77.50
2018-12-13T10:29:35.835Z,77.80
2018-12-13T10:30:39.232Z,77.60
2018-12-13T10:31:42.599Z,77.70
2018-12-13T10:32:46.039Z,78.20
2018-12-13T10:33:49.463Z,77.10
2018-12-13T10:34:52.866Z,77.20
2018-12-13T10:35:56.257Z,77.30
2018-12-13T10:36:59.665Z,77.20
2018-12-13T10:38:03.106Z,76.90
2018-12-13T10:39:08.286Z,77.20
2018-12-13T10:40:11.690Z,76.40
2018-12-13T10:41:15.078Z,76.50
2018-12-13T10:42:18.471Z,76.70
2018-12-13T10:43:21.886Z,76.70
2018-12-13T10:44:30.474Z,76.80
2018-12-13T10:45:33.890Z,76.70
2018-12-13T10:46:37.285Z,76.40
2018-12-13T10:47:40.693Z,76.40
2018-12-13T10:48:44.086Z,76.30
2018-12-13T10:49:47.474Z,76.10
2018-12-13T10:50:50.855Z,76.00
2018-12-13T10:51:54.237Z,75.80
2018-12-13T10:52:57.613Z,75.70
2018-12-13T10:54:00.982Z,75.40
2018-12-13T10:55:04.799Z,75.40
2018-12-13T10:56:08.173Z,75.30
2018-12-13T10:57:11.571Z,75.40
2018-12-13T10:58:14.967Z,75.50
2018-12-13T10:59:18.354Z,75.30
2018-12-13T11:00:27.262Z,75.00
2018-12-13T11:01:36.113Z,74.80
2018-12-13T11:02:55.135Z,74.60
2018-12-13T11:03:58.511Z,74.30
2018-12-13T11:05:02.138Z,74.20
2018-12-13T11:06:05.528Z,74.30
2018-12-13T11:07:08.923Z,74.20
2018-12-13T11:08:12.296Z,73.90
2018-12-13T11:09:15.758Z,73.50
2018-12-13T11:10:25.263Z,73.60
2018-12-13T11:11:24.542Z,73.50
2018-12-13T11:12:27.927Z,73.20
2018-12-13T11:13:31.307Z,73.10
2018-12-13T11:14:34.687Z,73.10
2018-12-13T11:15:38.099Z,72.90
2018-12-13T11:16:41.514Z,73.00
2018-12-13T11:17:44.898Z,73.00
2018-12-13T11:18:48.283Z,72.70
2018-12-13T11:19:51.656Z,72.70
2018-12-13T11:20:55.042Z,72.80
2018-12-13T11:21:58.449Z,73.00
2018-12-13T11:23:01.866Z,73.20
2018-12-13T11:24:05.247Z,73.40
2018-12-13T11:25:08.603Z,73.50
2018-12-13T11:26:12.002Z,73.50
2018-12-13T11:27:26.877Z,73.10
2018-12-13T11:29:09.891Z,72.80
2018-12-13T11:30:24.268Z,72.20
2018-12-13T11:31:27.657Z,71.70
2018-12-13T11:32:31.078Z,71.80
2018-12-13T11:33:34.490Z,71.80
2018-12-13T11:34:37.868Z,71.90
2018-12-13T11:35:41.235Z,72.10
2018-12-13T11:36:44.614Z,72.10
2018-12-13T11:37:48.005Z,71.70
2018-12-13T11:38:51.404Z,71.30
2018-12-13T11:39:54.809Z,71.30
2018-12-13T11:40:58.170Z,72.10
2018-12-13T11:42:01.563Z,71.70
2018-12-13T11:43:04.961Z,71.70
2018-12-13T11:44:08.391Z,71.40
2018-12-13T11:45:11.879Z,70.70
2018-12-13T11:46:15.294Z,70.40
2018-12-13T11:47:18.666Z,70.20
2018-12-13T11:48:22.053Z,70.20
2018-12-13T11:49:25.551Z,70.80
2018-12-13T11:50:28.924Z,69.80
2018-12-13T11:51:32.302Z,69.60
2018-12-13T11:52:35.677Z,68.90
2018-12-13T11:53:39.067Z,69.00
2018-12-13T11:54:43.829Z,68.10
2018-12-13T11:55:47.222Z,67.70
2018-12-13T11:56:50.607Z,67.70
2018-12-13T11:57:54.005Z,67.90
2018-12-13T11:58:57.402Z,68.10
2018-12-13T12:00:00.810Z,69.30
2018-12-13T12:01:04.174Z,68.30
2018-12-13T12:02:07.568Z,68.90
2018-12-13T12:03:10.953Z,68.30
2018-12-13T12:04:14.351Z,68.10
2018-12-13T12:05:17.741Z,68.30
2018-12-13T12:06:21.113Z,68.30
2018-12-13T12:07:24.479Z,68.40
2018-12-13T12:08:27.883Z,68.50
2018-12-13T12:09:31.275Z,68.20
2018-12-13T12:10:34.683Z,68.00
2018-12-13T12:11:38.042Z,67.80
2018-12-13T12:12:41.407Z,66.90
2018-12-13T12:13:44.792Z,66.20
2018-12-13T12:14:48.155Z,66.10
2018-12-13T12:15:51.547Z,65.50
2018-12-13T12:16:54.918Z,64.90
2018-12-13T12:17:58.332Z,64.20
2018-12-13T12:19:01.710Z,64.00
2018-12-13T12:20:05.456Z,63.90
2018-12-13T12:21:08.854Z,63.90
2018-12-13T12:22:12.231Z,63.80
2018-12-13T12:23:15.597Z,63.80
2018-12-13T12:24:18.970Z,63.70
2018-12-13T12:25:22.356Z,63.00
2018-12-13T12:26:25.853Z,62.90
2018-12-13T12:27:29.238Z,62.70
2018-12-13T12:28:32.614Z,62.80
2018-12-13T12:29:35.995Z,63.00
2018-12-13T12:30:39.459Z,62.80
2018-12-13T12:31:43.002Z,62.90
2018-12-13T12:32:46.382Z,62.90
2018-12-13T12:33:49.750Z,62.90
2018-12-13T12:34:53.134Z,62.70
2018-12-13T12:35:56.510Z,62.60
2018-12-13T12:36:59.927Z,62.70
2018-12-13T12:38:03.306Z,62.40
2018-12-13T12:39:07.738Z,62.20
2018-12-13T12:40:11.110Z,62.00
2018-12-13T12:41:14.546Z,62.00
2018-12-13T12:42:17.955Z,62.20
2018-12-13T12:43:21.338Z,62.40
2018-12-13T12:44:27.542Z,62.70
2018-12-13T12:45:30.918Z,62.80
2018-12-13T12:46:34.335Z,62.90
2018-12-13T12:47:37.712Z,63.10
2018-12-13T12:48:41.065Z,62.90
2018-12-13T12:49:44.451Z,62.80
2018-12-13T12:50:47.854Z,62.90
2018-12-13T12:51:51.222Z,62.70
2018-12-13T12:52:54.598Z,61.40
2018-12-13T12:53:57.962Z,61.40
2018-12-13T12:55:01.347Z,61.70
2018-12-13T12:56:04.866Z,61.70
2018-12-13T12:57:08.251Z,61.70
2018-12-13T12:58:11.647Z,61.60
2018-12-13T12:59:15.050Z,61.40
2018-12-13T13:00:18.497Z,61.00
2018-12-13T13:01:21.857Z,60.90
2018-12-13T13:02:25.264Z,60.40
2018-12-13T13:03:28.672Z,60.40
2018-12-13T13:04:32.066Z,60.40
2018-12-13T13:05:35.430Z,60.50
2018-12-13T13:06:38.806Z,60.60
2018-12-13T13:07:42.180Z,60.10
2018-12-13T13:08:45.569Z,60.20
2018-12-13T13:09:48.943Z,59.80
2018-12-13T13:10:52.337Z,59.90
2018-12-13T13:11:55.713Z,60.00
2018-12-13T13:12:59.118Z,60.20
2018-12-13T13:14:02.552Z,60.00
2018-12-13T13:15:05.933Z,59.90
2018-12-13T13:16:09.291Z,60.40
2018-12-13T13:17:12.669Z,59.50
2018-12-13T13:18:16.034Z,59.40
2018-12-13T13:19:19.423Z,59.30
2018-12-13T13:20:22.790Z,59.20
2018-12-13T13:21:26.206Z,58.80
2018-12-13T13:22:29.698Z,58.60
2018-12-13T13:23:33.245Z,58.50
2018-12-13T13:24:36.675Z,58.60
2018-12-13T13:25:40.158Z,58.40
2018-12-13T13:26:43.534Z,58.40
2018-12-13T13:27:46.920Z,58.40
2018-12-13T13:28:50.282Z,58.40
2018-12-13T13:29:53.662Z,58.30
2018-12-13T13:30:57.038Z,58.10
2018-12-13T13:32:00.394Z,58.10
2018-12-13T13:33:03.771Z,58.00
2018-12-13T13:34:07.134Z,58.10
2018-12-13T13:35:11.462Z,58.20
2018-12-13T13:36:14.838Z,58.20
2018-12-13T13:37:18.243Z,58.10
2018-12-13T13:38:21.618Z,57.70
2018-12-13T13:39:31.317Z,57.20
2018-12-13T13:40:30.385Z,57.00